createdAt,value
2018-07-24T00:00:39.757Z,18.97
2018-07-24T00:03:15.199Z,18.73
2018-07-24T00:05:50.138Z,19.53
2018-07-24T00:08:25.130Z,20.23
2018-07-24T00:11:00.087Z,19.53
2018-07-24T00:13:35.499Z,22.20
2018-07-24T00:16:10.513Z,20.10
2018-07-24T00:18:45.592Z,19.00
2018-07-24T00:21:20.440Z,18.60
2018-07-24T00:24:00.145Z,18.20
2018-07-24T00:26:34.789Z,18.80
2018-07-24T00:29:10.389Z,18.47
2018-07-24T00:31:48.326Z,18.67
2018-07-24T00:34:23.352Z,18.10
2018-07-24T00:36:58.711Z,19.13
2018-07-24T00:39:33.579Z,19.03
2018-07-24T00:42:09.393Z,18.73
2018-07-24T00:44:44.531Z,21.73
2018-07-24T00:47:19.438Z,20.23
2018-07-24T00:49:54.221Z,19.13
2018-07-24T00:52:29.666Z,21.23
2018-07-24T00:55:05.108Z,20.40
2018-07-24T00:57:39.938Z,19.03
2018-07-24T01:00:14.997Z,18.80
2018-07-24T01:02:50.411Z,20.13
2018-07-24T01:05:25.229Z,20.23
2018-07-24T01:08:00.127Z,20.20
2018-07-24T01:10:35.226Z,20.00
2018-07-24T01:13:10.475Z,21.83
2018-07-24T01:15:45.436Z,19.10
2018-07-24T01:18:20.290Z,21.70
2018-07-24T01:20:55.254Z,22.17
2018-07-24T01:23:30.193Z,19.50
2018-07-24T01:26:05.389Z,22.53
2018-07-24T01:28:40.138Z,20.07
2018-07-24T01:31:15.454Z,20.90
2018-07-24T01:33:50.644Z,19.33
2018-07-24T01:36:25.645Z,20.13
2018-07-24T01:39:01.204Z,20.90
2018-07-24T01:41:36.395Z,20.87
2018-07-24T01:44:11.329Z,21.13
2018-07-24T01:46:46.243Z,20.03
2018-07-24T01:49:26.455Z,20.70
2018-07-24T01:52:01.668Z,22.87
2018-07-24T01:54:36.584Z,20.57
2018-07-24T01:57:11.714Z,21.50
2018-07-24T01:59:46.778Z,21.70
2018-07-24T02:02:21.658Z,21.17
2018-07-24T02:04:57.156Z,20.87
2018-07-24T02:07:32.116Z,20.73
2018-07-24T02:10:07.948Z,21.37
2018-07-24T02:12:42.847Z,20.93
2018-07-24T02:15:17.857Z,20.60
2018-07-24T02:17:52.565Z,21.50
2018-07-24T02:20:28.123Z,21.60
2018-07-24T02:23:03.330Z,21.33
2018-07-24T02:25:38.186Z,22.30
2018-07-24T02:28:13.015Z,22.20
2018-07-24T02:30:48.258Z,20.87
2018-07-24T02:33:23.350Z,20.83
2018-07-24T02:36:02.379Z,22.47
2018-07-24T02:38:37.790Z,22.30
2018-07-24T02:41:12.833Z,22.67
2018-07-24T02:43:47.835Z,22.60
2018-07-24T02:46:22.656Z,22.23
2018-07-24T02:48:57.984Z,23.00
2018-07-24T02:51:33.090Z,22.50
2018-07-24T02:54:07.952Z,23.40
2018-07-24T02:56:43.070Z,23.03
2018-07-24T02:59:18.363Z,21.60
2018-07-24T03:01:53.715Z,22.90
2018-07-24T03:04:28.526Z,22.00
2018-07-24T03:07:03.767Z,20.80
2018-07-24T03:09:39.408Z,20.87
2018-07-24T03:12:14.335Z,23.10
2018-07-24T03:14:49.395Z,21.83
2018-07-24T03:17:24.808Z,21.80
2018-07-24T03:19:59.851Z,23.93
2018-07-24T03:22:35.098Z,23.73
2018-07-24T03:25:09.945Z,21.87
2018-07-24T03:27:45.011Z,21.80
2018-07-24T03:30:19.913Z,21.37
2018-07-24T03:32:55.514Z,21.20
2018-07-24T03:35:31.068Z,22.07
2018-07-24T03:38:06.636Z,22.73
2018-07-24T03:40:42.050Z,21.10
2018-07-24T03:43:17.237Z,20.90
2018-07-24T03:45:52.082Z,22.80
2018-07-24T03:48:27.538Z,21.17
2018-07-24T03:51:02.622Z,21.53
2018-07-24T03:53:37.595Z,19.67
2018-07-24T03:56:13.137Z,21.43
2018-07-24T03:58:48.229Z,20.63
2018-07-24T04:01:22.875Z,21.00
2018-07-24T04:03:57.635Z,20.73
2018-07-24T04:06:32.559Z,20.77
2018-07-24T04:09:09.314Z,20.30
2018-07-24T04:11:49.703Z,19.80
2018-07-24T04:14:24.772Z,19.30
2018-07-24T04:16:59.565Z,21.03
2018-07-24T04:19:34.587Z,22.30
2018-07-24T04:22:09.676Z,20.10
2018-07-24T04:24:44.672Z,19.83
2018-07-24T04:27:19.950Z,22.43
2018-07-24T04:29:55.448Z,20.40
2018-07-24T04:32:30.523Z,20.27
2018-07-24T04:35:06.284Z,24.13
2018-07-24T04:37:41.383Z,20.07
2018-07-24T04:40:16.833Z,19.80
2018-07-24T04:42:52.345Z,19.63
2018-07-24T04:45:27.588Z,20.93
2018-07-24T04:48:02.714Z,18.37
2018-07-24T04:50:38.305Z,20.73
2018-07-24T04:53:13.514Z,19.10
2018-07-24T04:55:48.712Z,22.83
2018-07-24T04:58:23.838Z,20.83
2018-07-24T05:00:59.248Z,20.43
2018-07-24T05:03:34.279Z,20.97
2018-07-24T05:06:09.694Z,21.50
2018-07-24T05:08:44.848Z,20.23
2018-07-24T05:11:20.382Z,20.53
2018-07-24T05:13:55.459Z,19.13
2018-07-24T05:16:30.459Z,21.70
2018-07-24T05:19:06.127Z,21.73
2018-07-24T05:21:41.644Z,23.30
2018-07-24T05:24:16.574Z,20.97
2018-07-24T05:26:51.515Z,21.13
2018-07-24T05:29:26.940Z,19.67
2018-07-24T05:32:01.696Z,19.70
2018-07-24T05:34:37.153Z,21.43
2018-07-24T05:37:12.254Z,25.00
2018-07-24T05:39:47.340Z,20.97
2018-07-24T05:42:22.641Z,20.33
2018-07-24T05:44:57.491Z,19.30
2018-07-24T05:47:32.651Z,21.53
2018-07-24T05:50:07.996Z,20.60
2018-07-24T05:52:42.914Z,22.47
2018-07-24T05:55:18.039Z,19.93
2018-07-24T05:57:53.206Z,21.67
2018-07-24T06:00:28.029Z,22.10
2018-07-24T06:03:03.142Z,24.67
2018-07-24T06:05:38.475Z,20.83
2018-07-24T06:08:13.309Z,20.30
2018-07-24T06:10:48.411Z,20.13
2018-07-24T06:13:23.605Z,19.90
2018-07-24T06:16:04.519Z,22.43
2018-07-24T06:18:39.585Z,23.03
2018-07-24T06:21:14.942Z,19.43
2018-07-24T06:23:50.581Z,18.77
2018-07-24T06:26:29.829Z,24.93
2018-07-24T06:29:04.959Z,21.30
2018-07-24T06:31:39.939Z,25.90
2018-07-24T06:34:15.435Z,18.80
2018-07-24T06:36:50.442Z,19.53
2018-07-24T06:39:25.642Z,20.10
2018-07-24T06:42:00.637Z,21.07
2018-07-24T06:44:35.535Z,20.27
2018-07-24T06:47:12.011Z,20.00
2018-07-24T06:49:47.105Z,18.70
2018-07-24T06:52:22.682Z,24.17
2018-07-24T06:54:57.891Z,19.30
2018-07-24T06:57:36.305Z,19.67
2018-07-24T07:00:11.497Z,19.80
2018-07-24T07:02:47.543Z,27.37
2018-07-24T07:05:22.436Z,19.20
2018-07-24T07:07:57.712Z,19.50
2018-07-24T07:10:32.738Z,24.17
2018-07-24T07:13:08.479Z,19.23
2018-07-24T07:15:43.930Z,23.43
2018-07-24T07:18:18.899Z,18.67
2018-07-24T07:20:54.783Z,23.93
2018-07-24T07:23:29.984Z,20.57
2018-07-24T07:26:05.968Z,24.50
2018-07-24T07:28:41.943Z,17.60
2018-07-24T07:31:18.491Z,19.33
2018-07-24T07:33:53.809Z,17.23
2018-07-24T07:36:28.977Z,20.27
2018-07-24T07:39:06.395Z,19.93
2018-07-24T07:41:41.965Z,17.83
2018-07-24T07:44:17.068Z,15.10
2018-07-24T07:46:52.545Z,14.73
2018-07-24T07:49:29.614Z,17.37
2018-07-24T07:52:04.493Z,16.30
2018-07-24T07:54:39.414Z,16.90
2018-07-24T07:57:14.411Z,16.37
2018-07-24T07:59:49.126Z,19.17
2018-07-24T08:02:24.640Z,15.50
2018-07-24T08:04:59.991Z,16.23
2018-07-24T08:07:34.645Z,16.20
2018-07-24T08:10:10.289Z,15.93
2018-07-24T08:12:45.374Z,14.00
2018-07-24T08:15:20.565Z,15.70
2018-07-24T08:17:55.682Z,14.27
2018-07-24T08:20:31.198Z,14.20
2018-07-24T08:23:07.039Z,14.50
2018-07-24T08:25:42.135Z,17.73
2018-07-24T08:28:17.375Z,17.30
2018-07-24T08:30:52.343Z,18.03
2018-07-24T08:33:27.413Z,12.80
2018-07-24T08:36:02.654Z,13.70
2018-07-24T08:38:37.470Z,14.67
2018-07-24T08:41:12.450Z,14.30
2018-07-24T08:43:47.460Z,12.37
2018-07-24T08:46:22.126Z,11.57
2018-07-24T08:48:57.006Z,11.20
2018-07-24T08:51:32.832Z,11.43
2018-07-24T08:54:08.270Z,11.50
2018-07-24T08:56:43.254Z,11.60
2018-07-24T08:59:18.450Z,12.90
2018-07-24T09:01:53.905Z,12.33
2018-07-24T09:04:29.558Z,11.87
2018-07-24T09:07:04.614Z,10.43
2018-07-24T09:09:39.978Z,14.63
2018-07-24T09:12:15.548Z,10.63
2018-07-24T09:14:50.870Z,16.77
2018-07-24T09:17:25.817Z,10.60
2018-07-24T09:20:00.849Z,9.87
2018-07-24T09:22:36.093Z,10.33
2018-07-24T09:25:11.088Z,10.07
2018-07-24T09:27:46.539Z,9.53
2018-07-24T09:30:21.355Z,11.73
2018-07-24T09:32:56.621Z,14.70
2018-07-24T09:35:31.924Z,9.30
2018-07-24T09:38:07.178Z,9.80
2018-07-24T09:43:33.823Z,9.50
2018-07-24T09:46:08.753Z,11.03
2018-07-24T09:48:43.651Z,8.90
2018-07-24T09:51:18.738Z,11.40
2018-07-24T09:53:53.506Z,8.90
2018-07-24T09:56:28.392Z,8.83
2018-07-24T09:59:04.196Z,8.70
2018-07-24T10:01:39.380Z,8.83
2018-07-24T10:04:14.557Z,8.00
2018-07-24T10:06:49.438Z,8.97
2018-07-24T10:09:24.816Z,11.23
2018-07-24T10:12:00.160Z,7.80
2018-07-24T10:14:35.046Z,7.90
2018-07-24T10:17:10.246Z,8.73
2018-07-24T10:19:45.450Z,7.97
2018-07-24T10:22:20.586Z,8.20
2018-07-24T10:25:00.857Z,8.73
2018-07-24T10:27:36.193Z,8.30
2018-07-24T10:30:11.196Z,7.20
2018-07-24T10:32:46.060Z,7.93
2018-07-24T10:35:21.269Z,8.07
2018-07-24T10:37:56.165Z,9.13
2018-07-24T10:40:31.624Z,10.57
2018-07-24T10:43:07.252Z,7.47
2018-07-24T10:45:42.692Z,10.80
2018-07-24T10:48:17.814Z,8.23
2018-07-24T10:50:52.976Z,7.47
2018-07-24T10:53:28.028Z,9.30
2018-07-24T10:56:03.455Z,9.40
2018-07-24T10:58:38.679Z,6.90
2018-07-24T11:01:13.386Z,6.93
2018-07-24T11:03:48.901Z,7.40
2018-07-24T11:06:24.637Z,6.57
2018-07-24T11:08:59.905Z,8.40
2018-07-24T11:11:34.780Z,7.00
2018-07-24T11:14:10.574Z,6.60
2018-07-24T11:16:45.545Z,12.37
2018-07-24T11:19:20.659Z,7.33
2018-07-24T11:21:55.611Z,6.23
2018-07-24T11:24:31.566Z,9.27
2018-07-24T11:27:06.742Z,10.43
2018-07-24T11:29:41.667Z,6.63
2018-07-24T11:32:17.098Z,5.70
2018-07-24T11:34:52.319Z,6.40
2018-07-24T11:37:27.094Z,7.07
2018-07-24T11:40:02.037Z,5.80
2018-07-24T11:42:36.952Z,5.80
2018-07-24T11:45:12.487Z,5.13
2018-07-24T11:47:47.832Z,6.10
2018-07-24T11:50:23.025Z,7.10
2018-07-24T11:52:58.337Z,7.57
2018-07-24T11:55:33.333Z,14.87
2018-07-24T12:01:07.864Z,5.00
2018-07-24T12:03:43.000Z,6.20
2018-07-24T12:06:18.335Z,6.67
2018-07-24T12:08:53.120Z,9.10
2018-07-24T12:11:29.177Z,4.87
2018-07-24T12:14:05.014Z,4.97
2018-07-24T12:16:39.937Z,5.50
2018-07-24T12:19:15.578Z,5.80
2018-07-24T12:21:50.821Z,4.97
2018-07-24T12:24:27.130Z,4.78
2018-07-24T12:27:02.345Z,5.23
2018-07-24T12:29:38.051Z,4.25
2018-07-24T12:32:13.294Z,5.07
2018-07-24T12:34:49.335Z,5.58
2018-07-24T12:37:25.016Z,5.45
2018-07-24T12:40:00.671Z,5.37
2018-07-24T12:42:36.939Z,4.45
2018-07-24T12:45:12.581Z,5.00
2018-07-24T12:47:48.099Z,5.20
2018-07-24T12:50:23.221Z,5.50
2018-07-24T12:53:03.818Z,5.20
2018-07-24T12:55:39.435Z,5.25
2018-07-24T12:58:14.905Z,5.87
2018-07-24T13:00:50.277Z,8.05
2018-07-24T13:03:24.655Z,5.73
2018-07-24T13:05:59.915Z,6.15
2018-07-24T13:08:35.624Z,5.28
2018-07-24T13:11:11.203Z,9.10
2018-07-24T13:13:46.808Z,6.75
2018-07-24T13:16:22.298Z,5.58
2018-07-24T13:18:57.856Z,5.90
2018-07-24T13:21:33.393Z,5.00
2018-07-24T13:24:08.790Z,8.83
2018-07-24T13:26:43.896Z,5.90
2018-07-24T13:29:19.830Z,6.17
2018-07-24T13:31:55.555Z,5.15
2018-07-24T13:34:30.958Z,5.95
2018-07-24T13:37:07.010Z,6.78
2018-07-24T13:39:42.540Z,5.85
2018-07-24T13:42:17.907Z,5.85
2018-07-24T13:44:53.512Z,6.25
2018-07-24T13:47:29.129Z,6.00
2018-07-24T13:50:04.803Z,5.90
2018-07-24T13:52:40.362Z,9.05
2018-07-24T13:55:16.114Z,6.12
2018-07-24T13:57:51.625Z,5.90
2018-07-24T14:00:27.431Z,6.10
2018-07-24T14:03:03.268Z,5.70
2018-07-24T14:05:38.811Z,5.20
2018-07-24T14:08:14.645Z,5.70
2018-07-24T14:10:50.111Z,6.05
2018-07-24T14:13:25.450Z,5.65
2018-07-24T14:16:01.034Z,5.80
2018-07-24T14:18:36.338Z,6.12
2018-07-24T14:21:11.697Z,7.10
2018-07-24T14:23:48.157Z,6.05
2018-07-24T14:26:23.894Z,5.40
2018-07-24T14:29:00.491Z,6.58
2018-07-24T14:31:35.877Z,7.55
2018-07-24T14:34:11.772Z,6.30
2018-07-24T14:36:47.151Z,5.70
2018-07-24T14:39:23.310Z,6.55
2018-07-24T14:41:58.577Z,5.47
2018-07-24T14:44:34.088Z,4.90
2018-07-24T14:47:10.002Z,5.45
2018-07-24T14:49:45.180Z,5.30
2018-07-24T14:52:20.875Z,5.62
2018-07-24T14:54:56.652Z,7.87
2018-07-24T14:57:32.492Z,6.53
2018-07-24T15:00:07.841Z,5.77
2018-07-24T15:02:44.083Z,6.05
2018-07-24T15:05:19.760Z,6.12
2018-07-24T15:07:55.106Z,5.87
2018-07-24T15:10:30.767Z,6.03
2018-07-24T15:13:06.612Z,5.75
2018-07-24T15:15:42.131Z,8.73
2018-07-24T15:18:16.977Z,5.77
2018-07-24T15:20:51.864Z,5.40
2018-07-24T15:23:27.786Z,5.00
2018-07-24T15:26:03.739Z,5.55
2018-07-24T15:28:39.592Z,5.28
2018-07-24T15:31:15.315Z,5.62
2018-07-24T15:33:50.832Z,5.78
2018-07-24T15:36:26.458Z,5.78
2018-07-24T15:39:01.542Z,5.87
2018-07-24T15:41:36.295Z,4.73
2018-07-24T15:44:11.425Z,5.53
2018-07-24T15:46:47.158Z,5.58
2018-07-24T15:49:23.108Z,8.05
2018-07-24T15:51:58.351Z,6.00
2018-07-24T15:54:33.391Z,5.55
2018-07-24T15:57:09.372Z,6.72
2018-07-24T15:59:43.781Z,6.17
2018-07-24T16:02:19.318Z,5.05
2018-07-24T16:04:54.453Z,5.07
2018-07-24T16:07:29.477Z,5.50
2018-07-24T16:10:06.084Z,5.70
2018-07-24T16:12:41.455Z,7.30
2018-07-24T16:15:17.362Z,5.90
2018-07-24T16:17:53.923Z,6.45
2018-07-24T16:20:29.160Z,6.10
2018-07-24T16:23:04.325Z,7.80
2018-07-24T16:25:39.595Z,5.80
2018-07-24T16:28:14.799Z,7.60
2018-07-24T16:30:50.501Z,6.10
2018-07-24T16:33:25.708Z,13.43
2018-07-24T16:36:01.419Z,5.97
2018-07-24T16:38:37.201Z,6.28
2018-07-24T16:41:12.306Z,5.83
2018-07-24T16:43:48.116Z,5.47
2018-07-24T16:46:23.652Z,6.10
2018-07-24T16:48:58.975Z,6.35
2018-07-24T16:51:33.816Z,6.90
2018-07-24T16:54:09.733Z,6.85
2018-07-24T16:56:44.648Z,5.93
2018-07-24T16:59:20.623Z,9.18
2018-07-24T17:02:02.414Z,7.05
2018-07-24T17:04:37.965Z,7.50
2018-07-24T17:07:13.192Z,6.90
2018-07-24T17:09:48.446Z,6.50
2018-07-24T17:12:23.481Z,6.13
2018-07-24T17:14:58.785Z,6.20
2018-07-24T17:17:34.065Z,6.57
2018-07-24T17:20:08.896Z,6.40
2018-07-24T17:22:43.778Z,6.40
2018-07-24T17:25:18.801Z,6.73
2018-07-24T17:27:53.300Z,9.07
2018-07-24T17:30:28.713Z,6.62
2018-07-24T17:33:04.004Z,6.90
2018-07-24T17:35:39.477Z,8.88
2018-07-24T17:38:15.055Z,9.03
2018-07-24T17:40:49.633Z,6.00
2018-07-24T17:43:24.783Z,6.73
2018-07-24T17:45:59.969Z,6.33
2018-07-24T17:48:35.271Z,6.60
2018-07-24T17:51:10.731Z,6.58
2018-07-24T17:53:46.491Z,6.45
2018-07-24T17:56:22.378Z,6.62
2018-07-24T17:58:58.160Z,7.03
2018-07-24T18:01:34.353Z,6.80
2018-07-24T18:04:09.312Z,6.93
2018-07-24T18:06:45.205Z,6.50
2018-07-24T18:09:21.079Z,6.92
2018-07-24T18:11:56.593Z,7.40
2018-07-24T18:14:32.493Z,6.30
2018-07-24T18:17:07.808Z,7.20
2018-07-24T18:19:43.371Z,10.70
2018-07-24T18:22:19.080Z,7.33
2018-07-24T18:24:55.013Z,7.25
2018-07-24T18:27:30.765Z,7.22
2018-07-24T18:30:07.680Z,10.95
2018-07-24T18:32:43.365Z,7.08
2018-07-24T18:35:19.527Z,7.72
2018-07-24T18:37:55.056Z,10.72
2018-07-24T18:40:31.071Z,7.05
2018-07-24T18:43:07.139Z,10.63
2018-07-24T18:45:43.005Z,7.05
2018-07-24T18:48:18.793Z,7.53
2018-07-24T18:50:54.463Z,8.53
2018-07-24T18:53:30.085Z,7.25
2018-07-24T18:56:06.218Z,7.65
2018-07-24T18:58:42.255Z,8.48
2018-07-24T19:01:17.866Z,7.72
2018-07-24T19:03:52.994Z,7.87
2018-07-24T19:06:28.975Z,7.25
2018-07-24T19:09:04.751Z,9.50
2018-07-24T19:11:40.174Z,7.33
2018-07-24T19:14:15.858Z,9.08
2018-07-24T19:16:50.907Z,7.80
2018-07-24T19:19:25.980Z,7.90
2018-07-24T19:22:01.273Z,7.30
2018-07-24T19:24:36.887Z,7.80
2018-07-24T19:27:11.722Z,8.10
2018-07-24T19:29:46.896Z,9.80
2018-07-24T19:32:22.043Z,8.27
2018-07-24T19:34:57.709Z,7.90
2018-07-24T19:37:32.900Z,8.63
2018-07-24T19:40:08.110Z,12.67
2018-07-24T19:42:43.057Z,8.50
2018-07-24T19:45:23.163Z,9.13
2018-07-24T19:48:01.520Z,9.40
2018-07-24T19:50:36.229Z,9.10
2018-07-24T19:53:11.584Z,14.37
2018-07-24T19:55:51.924Z,8.73
2018-07-24T19:58:26.840Z,11.93
2018-07-24T20:01:01.966Z,13.53
2018-07-24T20:03:37.162Z,8.93
2018-07-24T20:06:12.443Z,9.67
2018-07-24T20:08:47.769Z,9.40
2018-07-24T20:11:22.865Z,9.63
2018-07-24T20:13:58.144Z,10.73
2018-07-24T20:16:33.055Z,10.63
2018-07-24T20:19:08.556Z,10.43
2018-07-24T20:21:43.596Z,14.17
2018-07-24T20:24:18.536Z,10.70
2018-07-24T20:26:54.061Z,10.83
2018-07-24T20:29:29.454Z,11.07
2018-07-24T20:32:03.993Z,10.30
2018-07-24T20:34:40.523Z,15.70
2018-07-24T20:37:15.740Z,9.80
2018-07-24T20:39:51.025Z,11.97
2018-07-24T20:42:26.443Z,10.17
2018-07-24T20:45:01.597Z,10.33
2018-07-24T20:47:37.572Z,13.37
2018-07-24T20:50:12.754Z,12.97
2018-07-24T20:52:47.975Z,11.43
2018-07-24T20:55:23.645Z,14.97
2018-07-24T20:57:58.558Z,12.50
2018-07-24T21:00:33.545Z,12.30
2018-07-24T21:03:08.756Z,11.77
2018-07-24T21:05:43.890Z,9.67
2018-07-24T21:08:19.000Z,13.87
2018-07-24T21:10:53.904Z,13.20
2018-07-24T21:13:29.252Z,12.60
2018-07-24T21:16:04.265Z,11.13
2018-07-24T21:18:39.991Z,16.57
2018-07-24T21:21:16.058Z,11.07
2018-07-24T21:23:51.573Z,11.50
2018-07-24T21:26:27.635Z,13.23
2018-07-24T21:29:02.351Z,10.27
2018-07-24T21:31:37.397Z,13.60
2018-07-24T21:34:13.238Z,11.40
2018-07-24T21:36:48.280Z,11.77
2018-07-24T21:39:23.380Z,11.73
2018-07-24T21:41:58.417Z,11.50
2018-07-24T21:44:33.567Z,17.03
2018-07-24T21:47:09.317Z,12.63
2018-07-24T21:49:44.165Z,14.00
2018-07-24T21:52:26.025Z,14.20
2018-07-24T21:55:01.737Z,12.57
2018-07-24T21:57:36.707Z,13.37
2018-07-24T22:00:12.610Z,14.17
2018-07-24T22:02:48.355Z,14.03
2018-07-24T22:05:23.237Z,15.00
2018-07-24T22:07:58.571Z,20.23
2018-07-24T22:10:33.944Z,19.63
2018-07-24T22:13:08.903Z,15.53
2018-07-24T22:15:44.483Z,19.27
2018-07-24T22:18:22.432Z,13.87
2018-07-24T22:20:57.289Z,15.20
2018-07-24T22:23:32.216Z,22.40
2018-07-24T22:26:07.484Z,12.60
2018-07-24T22:28:42.580Z,15.53
2018-07-24T22:31:17.482Z,15.70
2018-07-24T22:33:52.750Z,17.37
2018-07-24T22:36:28.370Z,13.57
2018-07-24T22:39:04.868Z,12.20
2018-07-24T22:41:40.156Z,16.30
2018-07-24T22:44:15.329Z,21.93
2018-07-24T22:46:50.424Z,15.10
2018-07-24T22:49:25.368Z,19.73
2018-07-24T22:52:00.899Z,15.53
2018-07-24T22:54:36.199Z,14.10
2018-07-24T22:57:11.159Z,16.37
2018-07-24T22:59:46.254Z,16.23
2018-07-24T23:02:21.281Z,18.80
2018-07-24T23:04:56.866Z,17.83
2018-07-24T23:07:32.097Z,15.77
2018-07-24T23:10:07.430Z,16.40
2018-07-24T23:12:42.244Z,21.03
2018-07-24T23:15:17.389Z,24.00
2018-07-24T23:17:52.682Z,18.93
2018-07-24T23:20:28.346Z,13.87
2018-07-24T23:23:03.867Z,14.70
2018-07-24T23:25:38.863Z,16.33
2018-07-24T23:28:13.583Z,17.17
2018-07-24T23:30:48.480Z,21.50
2018-07-24T23:33:24.112Z,15.53
2018-07-24T23:35:59.295Z,17.90
2018-07-24T23:38:34.132Z,17.17
2018-07-24T23:41:10.268Z,17.10
2018-07-24T23:43:45.065Z,18.87
2018-07-24T23:46:20.136Z,16.10
2018-07-24T23:48:55.122Z,18.90
2018-07-24T23:51:30.552Z,20.33
2018-07-24T23:54:05.724Z,21.00
2018-07-24T23:56:40.340Z,18.23
2018-07-24T23:59:15.203Z,15.73
